sensor_id;sensor_type;location;lat;lon;timestamp;temperature;humidity
32698;DHT22;19087;51.062;3.754;2024-02-14T00:00:38;10.10;99.90
32698;DHT22;19087;51.062;3.754;2024-02-14T00:03:06;10.20;99.90
32698;DHT22;19087;51.062;3.754;2024-02-14T00:05:32;10.20;99.90
32698;DHT22;19087;51.062;3.754;2024-02-14T00:07:59;10.10;99.90
32698;DHT22;19087;51.062;3.754;2024-02-14T00:10:24;10.20;99.90
32698;DHT22;19087;51.062;3.754;2024-02-14T00:12:50;10.20;99.90
32698;DHT22;19087;51.062;3.754;2024-02-14T00:15:17;10.30;99.90
32698;DHT22;19087;51.062;3.754;2024-02-14T00:17:42;10.20;99.90
32698;DHT22;19087;51.062;3.754;2024-02-14T00:20:10;10.30;99.90
32698;DHT22;19087;51.062;3.754;2024-02-14T00:22:39;10.30;99.90
32698;DHT22;19087;51.062;3.754;2024-02-14T00:25:05;10.30;99.90
32698;DHT22;19087;51.062;3.754;2024-02-14T00:27:30;10.30;99.90
32698;DHT22;19087;51.062;3.754;2024-02-14T00:29:57;10.20;99.90
32698;DHT22;19087;51.062;3.754;2024-02-14T00:32:24;10.10;99.90
32698;DHT22;19087;51.062;3.754;2024-02-14T00:34:49;10.30;99.90
32698;DHT22;19087;51.062;3.754;2024-02-14T00:37:16;10.30;99.90
32698;DHT22;19087;51.062;3.754;2024-02-14T00:39:42;10.30;99.90
32698;DHT22;19087;51.062;3.754;2024-02-14T00:42:08;10.20;99.90
32698;DHT22;19087;51.062;3.754;2024-02-14T00:44:34;10.20;99.90
32698;DHT22;19087;51.062;3.754;2024-02-14T00:46:59;10.20;99.90
32698;DHT22;19087;51.062;3.754;2024-02-14T00:49:28;10.20;99.90
32698;DHT22;19087;51.062;3.754;2024-02-14T00:51:54;10.20;99.90
32698;DHT22;19087;51.062;3.754;2024-02-14T00:54:20;10.20;99.90
32698;DHT22;19087;51.062;3.754;2024-02-14T00:56:46;10.40;99.90
32698;DHT22;19087;51.062;3.754;2024-02-14T00:59:11;10.50;99.90
32698;DHT22;19087;51.062;3.754;2024-02-14T01:01:38;10.50;99.90
32698;DHT22;19087;51.062;3.754;2024-02-14T01:04:06;10.50;99.90
32698;DHT22;19087;51.062;3.754;2024-02-14T01:06:33;10.50;99.90
32698;DHT22;19087;51.062;3.754;2024-02-14T01:08:59;10.60;99.90
32698;DHT22;19087;51.062;3.754;2024-02-14T01:11:25;10.70;99.90
32698;DHT22;19087;51.062;3.754;2024-02-14T01:13:50;10.70;99.90
32698;DHT22;19087;51.062;3.754;2024-02-14T01:16:17;10.60;99.90
32698;DHT22;19087;51.062;3.754;2024-02-14T01:18:43;10.50;99.90
32698;DHT22;19087;51.062;3.754;2024-02-14T01:21:10;10.50;99.90
32698;DHT22;19087;51.062;3.754;2024-02-14T01:23:38;10.70;99.90
32698;DHT22;19087;51.062;3.754;2024-02-14T01:26:03;10.70;99.90
32698;DHT22;19087;51.062;3.754;2024-02-14T01:28:29;10.60;99.90
32698;DHT22;19087;51.062;3.754;2024-02-14T01:30:57;10.40;99.90
32698;DHT22;19087;51.062;3.754;2024-02-14T01:33:23;10.30;99.90
32698;DHT22;19087;51.062;3.754;2024-02-14T01:35:49;10.50;99.90
32698;DHT22;19087;51.062;3.754;2024-02-14T01:38:14;10.60;99.90
32698;DHT22;19087;51.062;3.754;2024-02-14T01:40:45;10.50;99.90
32698;DHT22;19087;51.062;3.754;2024-02-14T01:43:10;10.40;99.90
32698;DHT22;19087;51.062;3.754;2024-02-14T01:45:37;10.40;99.90
32698;DHT22;19087;51.062;3.754;2024-02-14T01:48:06;10.30;99.90
32698;DHT22;19087;51.062;3.754;2024-02-14T01:50:33;10.30;99.90
32698;DHT22;19087;51.062;3.754;2024-02-14T01:53:00;10.30;99.90
32698;DHT22;19087;51.062;3.754;2024-02-14T01:55:27;10.30;99.90
32698;DHT22;19087;51.062;3.754;2024-02-14T01:57:54;10.50;99.90
32698;DHT22;19087;51.062;3.754;2024-02-14T02:00:19;10.50;99.90
32698;DHT22;19087;51.062;3.754;2024-02-14T02:02:46;10.60;99.90
32698;DHT22;19087;51.062;3.754;2024-02-14T02:05:13;10.70;99.90
32698;DHT22;19087;51.062;3.754;2024-02-14T02:07:39;10.60;99.90
32698;DHT22;19087;51.062;3.754;2024-02-14T02:10:11;10.60;99.90
32698;DHT22;19087;51.062;3.754;2024-02-14T02:12:38;10.60;99.90
32698;DHT22;19087;51.062;3.754;2024-02-14T02:15:06;10.60;99.90
32698;DHT22;19087;51.062;3.754;2024-02-14T02:17:32;10.80;99.90
32698;DHT22;19087;51.062;3.754;2024-02-14T02:20:00;10.80;99.90
32698;DHT22;19087;51.062;3.754;2024-02-14T02:22:27;10.90;99.90
32698;DHT22;19087;51.062;3.754;2024-02-14T02:24:54;10.90;99.90
32698;DHT22;19087;51.062;3.754;2024-02-14T02:27:21;10.80;99.90
32698;DHT22;19087;51.062;3.754;2024-02-14T02:29:47;10.70;99.90
32698;DHT22;19087;51.062;3.754;2024-02-14T02:32:13;10.70;99.90
32698;DHT22;19087;51.062;3.754;2024-02-14T02:34:38;10.80;99.90
32698;DHT22;19087;51.062;3.754;2024-02-14T02:37:10;10.60;99.90
32698;DHT22;19087;51.062;3.754;2024-02-14T02:39:36;10.70;99.90
32698;DHT22;19087;51.062;3.754;2024-02-14T02:42:02;10.60;99.90
32698;DHT22;19087;51.062;3.754;2024-02-14T02:44:31;10.70;99.90
32698;DHT22;19087;51.062;3.754;2024-02-14T02:46:58;10.60;99.90
32698;DHT22;19087;51.062;3.754;2024-02-14T02:49:23;10.60;99.90
32698;DHT22;19087;51.062;3.754;2024-02-14T02:51:50;10.60;99.90
32698;DHT22;19087;51.062;3.754;2024-02-14T02:54:15;10.60;99.90
32698;DHT22;19087;51.062;3.754;2024-02-14T02:56:42;10.70;99.90
32698;DHT22;19087;51.062;3.754;2024-02-14T02:59:09;10.70;99.90
32698;DHT22;19087;51.062;3.754;2024-02-14T03:01:37;10.80;99.90
32698;DHT22;19087;51.062;3.754;2024-02-14T03:04:08;10.90;99.90
32698;DHT22;19087;51.062;3.754;2024-02-14T03:06:34;11.00;99.90
32698;DHT22;19087;51.062;3.754;2024-02-14T03:09:02;11.00;99.90
32698;DHT22;19087;51.062;3.754;2024-02-14T03:11:31;10.90;99.90
32698;DHT22;19087;51.062;3.754;2024-02-14T03:13:56;10.80;99.90
32698;DHT22;19087;51.062;3.754;2024-02-14T03:16:22;10.80;99.90
32698;DHT22;19087;51.062;3.754;2024-02-14T03:18:50;10.90;99.90
32698;DHT22;19087;51.062;3.754;2024-02-14T03:21:16;10.90;99.90
32698;DHT22;19087;51.062;3.754;2024-02-14T03:23:47;11.00;99.90
32698;DHT22;19087;51.062;3.754;2024-02-14T03:26:14;11.10;99.90
32698;DHT22;19087;51.062;3.754;2024-02-14T03:28:41;11.10;99.90
32698;DHT22;19087;51.062;3.754;2024-02-14T03:31:07;11.00;99.90
32698;DHT22;19087;51.062;3.754;2024-02-14T03:33:34;11.10;99.90
32698;DHT22;19087;51.062;3.754;2024-02-14T03:35:59;11.10;99.90
32698;DHT22;19087;51.062;3.754;2024-02-14T03:38:34;11.30;99.90
32698;DHT22;19087;51.062;3.754;2024-02-14T03:41:00;11.30;99.90
32698;DHT22;19087;51.062;3.754;2024-02-14T03:43:28;11.00;99.90
32698;DHT22;19087;51.062;3.754;2024-02-14T03:45:55;10.80;99.90
32698;DHT22;19087;51.062;3.754;2024-02-14T03:48:21;10.70;99.90
32698;DHT22;19087;51.062;3.754;2024-02-14T03:50:47;10.70;99.90
32698;DHT22;19087;51.062;3.754;2024-02-14T03:53:13;10.60;99.90
32698;DHT22;19087;51.062;3.754;2024-02-14T03:55:40;10.70;99.90
32698;DHT22;19087;51.062;3.754;2024-02-14T03:58:06;10.70;99.90
32698;DHT22;19087;51.062;3.754;2024-02-14T04:00:34;10.80;99.90
32698;DHT22;19087;51.062;3.754;2024-02-14T04:03:02;10.90;99.90
32698;DHT22;19087;51.062;3.754;2024-02-14T04:05:29;10.90;99.90
32698;DHT22;19087;51.062;3.754;2024-02-14T04:07:55;11.20;99.90
32698;DHT22;19087;51.062;3.754;2024-02-14T04:10:21;11.10;99.90
32698;DHT22;19087;51.062;3.754;2024-02-14T04:12:47;10.90;99.90
32698;DHT22;19087;51.062;3.754;2024-02-14T04:15:13;10.80;99.90
32698;DHT22;19087;51.062;3.754;2024-02-14T04:17:39;10.80;99.90
32698;DHT22;19087;51.062;3.754;2024-02-14T04:20:05;10.80;99.90
32698;DHT22;19087;51.062;3.754;2024-02-14T04:22:31;10.90;99.90
32698;DHT22;19087;51.062;3.754;2024-02-14T04:24:57;11.00;99.90
32698;DHT22;19087;51.062;3.754;2024-02-14T04:27:23;11.10;99.90
32698;DHT22;19087;51.062;3.754;2024-02-14T04:29:48;11.20;99.90
32698;DHT22;19087;51.062;3.754;2024-02-14T04:32:17;11.10;99.90
32698;DHT22;19087;51.062;3.754;2024-02-14T04:34:45;11.10;99.90
32698;DHT22;19087;51.062;3.754;2024-02-14T04:37:11;11.10;99.90
32698;DHT22;19087;51.062;3.754;2024-02-14T04:39:40;11.20;99.90
32698;DHT22;19087;51.062;3.754;2024-02-14T04:42:08;11.20;99.90
32698;DHT22;19087;51.062;3.754;2024-02-14T04:44:34;11.10;99.90
32698;DHT22;19087;51.062;3.754;2024-02-14T04:47:00;11.00;99.90
32698;DHT22;19087;51.062;3.754;2024-02-14T04:49:27;11.10;99.90
32698;DHT22;19087;51.062;3.754;2024-02-14T04:51:55;11.40;99.90
32698;DHT22;19087;51.062;3.754;2024-02-14T04:54:21;11.60;99.90
32698;DHT22;19087;51.062;3.754;2024-02-14T04:56:46;11.40;99.90
32698;DHT22;19087;51.062;3.754;2024-02-14T04:59:14;11.40;99.90
32698;DHT22;19087;51.062;3.754;2024-02-14T05:01:41;11.40;99.90
32698;DHT22;19087;51.062;3.754;2024-02-14T05:04:07;11.40;99.90
32698;DHT22;19087;51.062;3.754;2024-02-14T05:06:33;11.30;99.90
32698;DHT22;19087;51.062;3.754;2024-02-14T05:09:00;11.30;99.90
32698;DHT22;19087;51.062;3.754;2024-02-14T05:11:26;11.40;99.90
32698;DHT22;19087;51.062;3.754;2024-02-14T05:13:52;11.40;99.90
32698;DHT22;19087;51.062;3.754;2024-02-14T05:16:20;11.50;99.90
32698;DHT22;19087;51.062;3.754;2024-02-14T05:18:46;11.50;99.90
32698;DHT22;19087;51.062;3.754;2024-02-14T05:21:15;11.70;99.90
32698;DHT22;19087;51.062;3.754;2024-02-14T05:23:45;11.80;99.90
32698;DHT22;19087;51.062;3.754;2024-02-14T05:26:12;11.80;99.90
32698;DHT22;19087;51.062;3.754;2024-02-14T05:28:37;11.80;99.90
32698;DHT22;19087;51.062;3.754;2024-02-14T05:31:03;11.60;99.90
32698;DHT22;19087;51.062;3.754;2024-02-14T05:33:29;11.50;99.90
32698;DHT22;19087;51.062;3.754;2024-02-14T05:35:55;11.60;99.90
32698;DHT22;19087;51.062;3.754;2024-02-14T05:38:21;11.60;99.90
32698;DHT22;19087;51.062;3.754;2024-02-14T05:40:47;11.70;99.90
32698;DHT22;19087;51.062;3.754;2024-02-14T05:43:15;11.60;99.90
32698;DHT22;19087;51.062;3.754;2024-02-14T05:45:43;11.70;99.90
32698;DHT22;19087;51.062;3.754;2024-02-14T05:48:11;11.70;99.90
32698;DHT22;19087;51.062;3.754;2024-02-14T05:50:36;11.60;99.90
32698;DHT22;19087;51.062;3.754;2024-02-14T05:53:03;11.80;99.90
32698;DHT22;19087;51.062;3.754;2024-02-14T05:55:29;11.90;99.90
32698;DHT22;19087;51.062;3.754;2024-02-14T05:57:55;12.10;99.90
32698;DHT22;19087;51.062;3.754;2024-02-14T06:00:25;12.00;99.90
32698;DHT22;19087;51.062;3.754;2024-02-14T06:03:00;12.00;99.90
32698;DHT22;19087;51.062;3.754;2024-02-14T06:05:27;12.10;99.90
32698;DHT22;19087;51.062;3.754;2024-02-14T06:07:54;12.00;99.90
32698;DHT22;19087;51.062;3.754;2024-02-14T06:10:20;12.20;99.90
32698;DHT22;19087;51.062;3.754;2024-02-14T06:12:46;12.10;99.90
32698;DHT22;19087;51.062;3.754;2024-02-14T06:15:14;11.90;99.90
32698;DHT22;19087;51.062;3.754;2024-02-14T06:17:40;11.70;99.90
32698;DHT22;19087;51.062;3.754;2024-02-14T06:20:06;11.70;99.90
32698;DHT22;19087;51.062;3.754;2024-02-14T06:22:34;11.70;99.90
32698;DHT22;19087;51.062;3.754;2024-02-14T06:25:01;11.70;99.90
32698;DHT22;19087;51.062;3.754;2024-02-14T06:27:30;11.90;99.90
32698;DHT22;19087;51.062;3.754;2024-02-14T06:29:56;11.80;99.90
32698;DHT22;19087;51.062;3.754;2024-02-14T06:32:23;12.00;99.90
32698;DHT22;19087;51.062;3.754;2024-02-14T06:34:49;11.80;99.90
32698;DHT22;19087;51.062;3.754;2024-02-14T06:37:17;11.70;99.90
32698;DHT22;19087;51.062;3.754;2024-02-14T06:39:42;11.80;99.90
32698;DHT22;19087;51.062;3.754;2024-02-14T06:42:09;11.90;99.90
32698;DHT22;19087;51.062;3.754;2024-02-14T06:44:35;11.90;99.90
32698;DHT22;19087;51.062;3.754;2024-02-14T06:47:00;11.80;99.90
32698;DHT22;19087;51.062;3.754;2024-02-14T06:49:26;11.70;99.90
32698;DHT22;19087;51.062;3.754;2024-02-14T06:51:51;11.70;99.90
32698;DHT22;19087;51.062;3.754;2024-02-14T06:54:17;11.60;99.90
32698;DHT22;19087;51.062;3.754;2024-02-14T06:56:45;11.50;99.90
32698;DHT22;19087;51.062;3.754;2024-02-14T06:59:11;11.70;99.90
32698;DHT22;19087;51.062;3.754;2024-02-14T07:01:36;11.70;99.90
32698;DHT22;19087;51.062;3.754;2024-02-14T07:04:03;11.70;99.90
32698;DHT22;19087;51.062;3.754;2024-02-14T07:06:30;11.60;99.90
32698;DHT22;19087;51.062;3.754;2024-02-14T07:08:56;11.50;99.90
32698;DHT22;19087;51.062;3.754;2024-02-14T07:11:21;11.50;99.90
32698;DHT22;19087;51.062;3.754;2024-02-14T07:13:47;11.40;99.90
32698;DHT22;19087;51.062;3.754;2024-02-14T07:16:13;11.30;99.90
32698;DHT22;19087;51.062;3.754;2024-02-14T07:18:38;11.30;99.90
32698;DHT22;19087;51.062;3.754;2024-02-14T07:21:04;11.40;99.90
32698;DHT22;19087;51.062;3.754;2024-02-14T07:23:31;11.40;99.90
32698;DHT22;19087;51.062;3.754;2024-02-14T07:25:58;11.60;99.90
32698;DHT22;19087;51.062;3.754;2024-02-14T07:28:23;11.60;99.90
32698;DHT22;19087;51.062;3.754;2024-02-14T07:30:49;11.60;99.90
32698;DHT22;19087;51.062;3.754;2024-02-14T07:33:15;11.70;99.90
32698;DHT22;19087;51.062;3.754;2024-02-14T07:35:41;11.80;99.90
32698;DHT22;19087;51.062;3.754;2024-02-14T07:38:11;11.70;99.90
32698;DHT22;19087;51.062;3.754;2024-02-14T07:40:37;11.80;99.90
32698;DHT22;19087;51.062;3.754;2024-02-14T07:43:04;11.70;99.90
32698;DHT22;19087;51.062;3.754;2024-02-14T07:45:31;11.80;99.90
32698;DHT22;19087;51.062;3.754;2024-02-14T07:48:00;11.90;99.90
32698;DHT22;19087;51.062;3.754;2024-02-14T07:50:27;11.90;99.90
32698;DHT22;19087;51.062;3.754;2024-02-14T07:52:55;11.90;99.90
32698;DHT22;19087;51.062;3.754;2024-02-14T07:55:21;12.10;99.90
32698;DHT22;19087;51.062;3.754;2024-02-14T07:57:47;12.00;99.90
32698;DHT22;19087;51.062;3.754;2024-02-14T08:00:14;11.90;99.90
32698;DHT22;19087;51.062;3.754;2024-02-14T08:02:48;11.90;99.90
32698;DHT22;19087;51.062;3.754;2024-02-14T08:05:14;11.90;99.90
32698;DHT22;19087;51.062;3.754;2024-02-14T08:07:45;11.80;99.90
32698;DHT22;19087;51.062;3.754;2024-02-14T08:10:12;11.90;99.90
32698;DHT22;19087;51.062;3.754;2024-02-14T08:12:37;11.80;99.90
32698;DHT22;19087;51.062;3.754;2024-02-14T08:15:04;11.80;99.90
32698;DHT22;19087;51.062;3.754;2024-02-14T08:17:32;11.70;99.90
32698;DHT22;19087;51.062;3.754;2024-02-14T08:20:02;11.70;99.90
32698;DHT22;19087;51.062;3.754;2024-02-14T08:22:30;11.90;99.90
32698;DHT22;19087;51.062;3.754;2024-02-14T08:24:56;11.90;99.90
32698;DHT22;19087;51.062;3.754;2024-02-14T08:27:22;12.00;99.90
32698;DHT22;19087;51.062;3.754;2024-02-14T08:29:48;11.90;99.90
32698;DHT22;19087;51.062;3.754;2024-02-14T08:32:13;12.00;99.90
32698;DHT22;19087;51.062;3.754;2024-02-14T08:34:40;12.00;99.90
32698;DHT22;19087;51.062;3.754;2024-02-14T08:37:06;12.00;99.90
32698;DHT22;19087;51.062;3.754;2024-02-14T08:39:34;12.00;99.90
32698;DHT22;19087;51.062;3.754;2024-02-14T08:41:59;12.00;99.90
32698;DHT22;19087;51.062;3.754;2024-02-14T08:44:29;12.30;99.90
32698;DHT22;19087;51.062;3.754;2024-02-14T08:46:57;12.30;99.90
32698;DHT22;19087;51.062;3.754;2024-02-14T08:49:24;12.30;99.90
32698;DHT22;19087;51.062;3.754;2024-02-14T08:51:50;12.20;99.90
32698;DHT22;19087;51.062;3.754;2024-02-14T08:54:17;12.10;99.90
32698;DHT22;19087;51.062;3.754;2024-02-14T08:56:43;12.20;99.90
32698;DHT22;19087;51.062;3.754;2024-02-14T08:59:10;12.20;99.90
32698;DHT22;19087;51.062;3.754;2024-02-14T09:01:37;12.10;99.90
32698;DHT22;19087;51.062;3.754;2024-02-14T09:04:05;12.00;99.90
32698;DHT22;19087;51.062;3.754;2024-02-14T09:06:31;12.10;99.90
32698;DHT22;19087;51.062;3.754;2024-02-14T09:09:04;12.20;99.90
32698;DHT22;19087;51.062;3.754;2024-02-14T09:11:36;12.10;99.90
32698;DHT22;19087;51.062;3.754;2024-02-14T09:14:02;12.10;99.90
32698;DHT22;19087;51.062;3.754;2024-02-14T09:16:35;12.20;99.90
32698;DHT22;19087;51.062;3.754;2024-02-14T09:19:01;12.30;99.90
32698;DHT22;19087;51.062;3.754;2024-02-14T09:21:28;12.30;99.90
32698;DHT22;19087;51.062;3.754;2024-02-14T09:23:56;12.20;99.90
32698;DHT22;19087;51.062;3.754;2024-02-14T09:26:24;12.30;99.90
32698;DHT22;19087;51.062;3.754;2024-02-14T09:28:50;12.30;99.90
32698;DHT22;19087;51.062;3.754;2024-02-14T09:31:23;12.50;99.90
32698;DHT22;19087;51.062;3.754;2024-02-14T09:33:51;12.50;99.90
32698;DHT22;19087;51.062;3.754;2024-02-14T09:36:22;12.40;99.90
32698;DHT22;19087;51.062;3.754;2024-02-14T09:38:47;12.20;99.90
32698;DHT22;19087;51.062;3.754;2024-02-14T09:41:25;12.20;99.90
32698;DHT22;19087;51.062;3.754;2024-02-14T09:43:52;12.10;99.90
32698;DHT22;19087;51.062;3.754;2024-02-14T09:46:24;12.10;99.90
32698;DHT22;19087;51.062;3.754;2024-02-14T09:48:53;12.30;99.90
32698;DHT22;19087;51.062;3.754;2024-02-14T09:51:23;12.20;99.90
32698;DHT22;19087;51.062;3.754;2024-02-14T09:53:51;12.20;99.90
32698;DHT22;19087;51.062;3.754;2024-02-14T09:56:20;12.20;99.90
32698;DHT22;19087;51.062;3.754;2024-02-14T09:58:49;12.30;99.90
32698;DHT22;19087;51.062;3.754;2024-02-14T10:01:23;12.40;99.90
32698;DHT22;19087;51.062;3.754;2024-02-14T10:03:53;12.30;99.90
32698;DHT22;19087;51.062;3.754;2024-02-14T10:06:19;12.30;99.90
32698;DHT22;19087;51.062;3.754;2024-02-14T10:08:49;12.30;99.90
32698;DHT22;19087;51.062;3.754;2024-02-14T10:11:18;12.30;99.90
32698;DHT22;19087;51.062;3.754;2024-02-14T10:13:47;12.30;99.90
32698;DHT22;19087;51.062;3.754;2024-02-14T10:16:16;12.30;99.90
32698;DHT22;19087;51.062;3.754;2024-02-14T10:18:45;12.40;99.90
32698;DHT22;19087;51.062;3.754;2024-02-14T10:21:16;12.30;99.90
32698;DHT22;19087;51.062;3.754;2024-02-14T10:23:45;12.20;99.90
32698;DHT22;19087;51.062;3.754;2024-02-14T10:26:15;12.20;99.90
32698;DHT22;19087;51.062;3.754;2024-02-14T10:28:42;12.30;99.90
32698;DHT22;19087;51.062;3.754;2024-02-14T10:31:13;12.30;99.90
32698;DHT22;19087;51.062;3.754;2024-02-14T10:33:38;12.50;99.90
32698;DHT22;19087;51.062;3.754;2024-02-14T10:36:07;12.40;99.90
32698;DHT22;19087;51.062;3.754;2024-02-14T10:38:34;12.50;99.90
32698;DHT22;19087;51.062;3.754;2024-02-14T10:41:08;12.40;99.90
32698;DHT22;19087;51.062;3.754;2024-02-14T10:43:34;12.30;99.90
32698;DHT22;19087;51.062;3.754;2024-02-14T10:46:08;12.30;99.90
32698;DHT22;19087;51.062;3.754;2024-02-14T10:48:38;12.40;99.90
32698;DHT22;19087;51.062;3.754;2024-02-14T10:51:12;12.60;99.90
32698;DHT22;19087;51.062;3.754;2024-02-14T10:53:45;12.50;99.90
32698;DHT22;19087;51.062;3.754;2024-02-14T10:56:17;12.50;99.90
32698;DHT22;19087;51.062;3.754;2024-02-14T10:58:47;12.60;99.90
32698;DHT22;19087;51.062;3.754;2024-02-14T11:01:14;12.80;99.90
32698;DHT22;19087;51.062;3.754;2024-02-14T11:03:42;12.90;99.90
32698;DHT22;19087;51.062;3.754;2024-02-14T11:06:08;12.80;99.90
32698;DHT22;19087;51.062;3.754;2024-02-14T11:08:35;13.00;99.90
32698;DHT22;19087;51.062;3.754;2024-02-14T11:11:01;13.00;99.90
32698;DHT22;19087;51.062;3.754;2024-02-14T11:13:30;13.20;99.90
32698;DHT22;19087;51.062;3.754;2024-02-14T11:16:02;13.20;99.90
32698;DHT22;19087;51.062;3.754;2024-02-14T11:18:33;13.30;99.90
32698;DHT22;19087;51.062;3.754;2024-02-14T11:20:59;13.50;99.90
32698;DHT22;19087;51.062;3.754;2024-02-14T11:23:31;13.30;99.90
32698;DHT22;19087;51.062;3.754;2024-02-14T11:26:02;13.20;99.90
32698;DHT22;19087;51.062;3.754;2024-02-14T11:28:31;13.40;99.90
32698;DHT22;19087;51.062;3.754;2024-02-14T11:31:16;13.60;99.90
32698;DHT22;19087;51.062;3.754;2024-02-14T11:33:43;13.80;99.90
32698;DHT22;19087;51.062;3.754;2024-02-14T11:36:16;14.00;99.90
32698;DHT22;19087;51.062;3.754;2024-02-14T11:38:44;13.90;99.90
32698;DHT22;19087;51.062;3.754;2024-02-14T11:41:13;13.80;99.90
32698;DHT22;19087;51.062;3.754;2024-02-14T11:43:38;13.90;99.90
32698;DHT22;19087;51.062;3.754;2024-02-14T11:46:05;14.00;99.90
32698;DHT22;19087;51.062;3.754;2024-02-14T11:48:30;13.90;99.90
32698;DHT22;19087;51.062;3.754;2024-02-14T11:50:57;14.10;99.90
32698;DHT22;19087;51.062;3.754;2024-02-14T11:53:25;14.00;99.90
32698;DHT22;19087;51.062;3.754;2024-02-14T11:55:52;14.20;99.90
32698;DHT22;19087;51.062;3.754;2024-02-14T11:58:18;14.00;99.90
32698;DHT22;19087;51.062;3.754;2024-02-14T12:00:44;14.00;99.90
32698;DHT22;19087;51.062;3.754;2024-02-14T12:03:33;14.00;99.90
32698;DHT22;19087;51.062;3.754;2024-02-14T12:05:58;13.90;99.90
32698;DHT22;19087;51.062;3.754;2024-02-14T12:08:24;13.80;99.90
32698;DHT22;19087;51.062;3.754;2024-02-14T12:10:49;13.80;99.90
32698;DHT22;19087;51.062;3.754;2024-02-14T12:13:17;13.90;99.90
32698;DHT22;19087;51.062;3.754;2024-02-14T12:15:45;14.10;99.90
32698;DHT22;19087;51.062;3.754;2024-02-14T12:18:13;14.10;99.90
32698;DHT22;19087;51.062;3.754;2024-02-14T12:20:42;14.10;99.90
32698;DHT22;19087;51.062;3.754;2024-02-14T12:23:17;14.20;99.90
32698;DHT22;19087;51.062;3.754;2024-02-14T12:25:43;14.20;99.90
32698;DHT22;19087;51.062;3.754;2024-02-14T12:28:16;14.40;99.90
32698;DHT22;19087;51.062;3.754;2024-02-14T12:30:50;14.30;99.90
32698;DHT22;19087;51.062;3.754;2024-02-14T12:33:22;14.50;99.90
32698;DHT22;19087;51.062;3.754;2024-02-14T12:35:52;14.40;99.90
32698;DHT22;19087;51.062;3.754;2024-02-14T12:38:19;14.40;99.90
32698;DHT22;19087;51.062;3.754;2024-02-14T12:40:45;14.50;99.90
32698;DHT22;19087;51.062;3.754;2024-02-14T12:43:14;14.40;99.90
32698;DHT22;19087;51.062;3.754;2024-02-14T12:45:43;14.30;99.90
32698;DHT22;19087;51.062;3.754;2024-02-14T12:48:12;14.40;99.90
32698;DHT22;19087;51.062;3.754;2024-02-14T12:50:39;14.30;99.90
32698;DHT22;19087;51.062;3.754;2024-02-14T12:53:07;14.30;99.90
32698;DHT22;19087;51.062;3.754;2024-02-14T12:55:33;14.10;99.90
32698;DHT22;19087;51.062;3.754;2024-02-14T12:58:01;14.10;99.90
32698;DHT22;19087;51.062;3.754;2024-02-14T13:00:27;14.30;99.90
32698;DHT22;19087;51.062;3.754;2024-02-14T13:02:55;14.40;99.90
32698;DHT22;19087;51.062;3.754;2024-02-14T13:05:20;14.30;99.90
32698;DHT22;19087;51.062;3.754;2024-02-14T13:07:47;14.20;99.90
32698;DHT22;19087;51.062;3.754;2024-02-14T13:10:13;14.10;99.90
32698;DHT22;19087;51.062;3.754;2024-02-14T13:12:39;14.30;99.90
32698;DHT22;19087;51.062;3.754;2024-02-14T13:15:05;14.30;99.90
32698;DHT22;19087;51.062;3.754;2024-02-14T13:17:31;14.40;99.90
32698;DHT22;19087;51.062;3.754;2024-02-14T13:19:57;14.40;99.90
32698;DHT22;19087;51.062;3.754;2024-02-14T13:22:28;14.30;99.90
32698;DHT22;19087;51.062;3.754;2024-02-14T13:24:53;14.20;99.90
32698;DHT22;19087;51.062;3.754;2024-02-14T13:27:19;14.20;99.90
32698;DHT22;19087;51.062;3.754;2024-02-14T13:29:49;14.30;99.90
32698;DHT22;19087;51.062;3.754;2024-02-14T13:32:16;14.30;99.90
32698;DHT22;19087;51.062;3.754;2024-02-14T13:34:42;14.20;99.90
32698;DHT22;19087;51.062;3.754;2024-02-14T13:37:10;14.30;99.90
32698;DHT22;19087;51.062;3.754;2024-02-14T13:39:36;14.40;99.90
32698;DHT22;19087;51.062;3.754;2024-02-14T13:42:02;14.40;99.90
32698;DHT22;19087;51.062;3.754;2024-02-14T13:44:28;14.40;99.90
32698;DHT22;19087;51.062;3.754;2024-02-14T13:46:54;14.30;99.90
32698;DHT22;19087;51.062;3.754;2024-02-14T13:49:20;14.20;99.90
32698;DHT22;19087;51.062;3.754;2024-02-14T13:51:52;14.20;99.90
32698;DHT22;19087;51.062;3.754;2024-02-14T13:54:21;14.30;99.90
32698;DHT22;19087;51.062;3.754;2024-02-14T13:56:47;14.20;99.90
32698;DHT22;19087;51.062;3.754;2024-02-14T13:59:14;14.30;99.90
32698;DHT22;19087;51.062;3.754;2024-02-14T14:01:40;14.30;99.90
32698;DHT22;19087;51.062;3.754;2024-02-14T14:04:07;14.40;99.90
32698;DHT22;19087;51.062;3.754;2024-02-14T14:06:32;14.40;99.90
32698;DHT22;19087;51.062;3.754;2024-02-14T14:08:59;14.60;99.90
32698;DHT22;19087;51.062;3.754;2024-02-14T14:11:25;14.80;99.90
32698;DHT22;19087;51.062;3.754;2024-02-14T14:13:51;14.70;99.90
32698;DHT22;19087;51.062;3.754;2024-02-14T14:16:17;14.90;99.90
32698;DHT22;19087;51.062;3.754;2024-02-14T14:18:43;15.00;99.90
32698;DHT22;19087;51.062;3.754;2024-02-14T14:21:08;14.90;99.90
32698;DHT22;19087;51.062;3.754;2024-02-14T14:23:34;15.00;99.90
32698;DHT22;19087;51.062;3.754;2024-02-14T14:26:02;15.00;99.90
32698;DHT22;19087;51.062;3.754;2024-02-14T14:28:28;15.10;99.90
32698;DHT22;19087;51.062;3.754;2024-02-14T14:30:54;15.00;99.90
32698;DHT22;19087;51.062;3.754;2024-02-14T14:33:21;15.20;99.90
32698;DHT22;19087;51.062;3.754;2024-02-14T14:35:47;15.30;99.90
32698;DHT22;19087;51.062;3.754;2024-02-14T14:38:15;15.30;99.90
32698;DHT22;19087;51.062;3.754;2024-02-14T14:40:41;15.10;99.90
32698;DHT22;19087;51.062;3.754;2024-02-14T14:43:07;15.10;99.90
32698;DHT22;19087;51.062;3.754;2024-02-14T14:45:33;15.20;99.90
32698;DHT22;19087;51.062;3.754;2024-02-14T14:47:58;15.10;99.90
32698;DHT22;19087;51.062;3.754;2024-02-14T14:50:24;15.00;99.90
32698;DHT22;19087;51.062;3.754;2024-02-14T14:52:51;15.10;99.90
32698;DHT22;19087;51.062;3.754;2024-02-14T14:55:18;15.20;99.90
32698;DHT22;19087;51.062;3.754;2024-02-14T14:57:45;15.30;99.90
32698;DHT22;19087;51.062;3.754;2024-02-14T15:00:11;15.40;99.90
32698;DHT22;19087;51.062;3.754;2024-02-14T15:02:42;15.10;99.90
32698;DHT22;19087;51.062;3.754;2024-02-14T15:05:12;15.00;99.90
32698;DHT22;19087;51.062;3.754;2024-02-14T15:07:39;14.90;99.90
32698;DHT22;19087;51.062;3.754;2024-02-14T15:10:06;14.80;99.90
32698;DHT22;19087;51.062;3.754;2024-02-14T15:12:36;15.00;99.90
32698;DHT22;19087;51.062;3.754;2024-02-14T15:15:05;15.20;99.90
32698;DHT22;19087;51.062;3.754;2024-02-14T15:17:32;15.10;99.90
32698;DHT22;19087;51.062;3.754;2024-02-14T15:19:58;15.30;99.90
32698;DHT22;19087;51.062;3.754;2024-02-14T15:22:24;15.30;99.90
32698;DHT22;19087;51.062;3.754;2024-02-14T15:24:52;15.30;99.90
32698;DHT22;19087;51.062;3.754;2024-02-14T15:27:19;15.00;99.90
32698;DHT22;19087;51.062;3.754;2024-02-14T15:29:51;15.20;99.90